createdAt,value
2022-11-28T00:07:26.553Z,21.38
2022-11-28T00:17:34.480Z,16.89
2022-11-28T00:27:42.557Z,18.02
2022-11-28T00:37:50.706Z,16.22
2022-11-28T00:47:58.995Z,16.14
2022-11-28T00:58:06.960Z,14.64
2022-11-28T01:08:15.171Z,15.82
2022-11-28T01:18:23.250Z,17.07
2022-11-28T01:28:31.711Z,18.56
2022-11-28T01:38:39.847Z,22.98
2022-11-28T01:48:47.887Z,22.11
2022-11-28T01:58:55.874Z,21.75
2022-11-28T02:09:05.132Z,24.71
2022-11-28T02:19:13.124Z,23.96
2022-11-28T02:29:21.136Z,20.98
2022-11-28T02:39:29.265Z,24.47
2022-11-28T02:49:37.303Z,18.43
2022-11-28T02:59:45.331Z,14.43
2022-11-28T03:09:53.420Z,13.28
2022-11-28T03:20:01.611Z,12.06
2022-11-28T03:30:10.006Z,14.71
2022-11-28T03:40:20.417Z,14.43
2022-11-28T03:50:28.791Z,11.49
2022-11-28T04:00:28.084Z,11.26
2022-11-28T04:10:36.176Z,13.3
2022-11-28T04:20:45.529Z,12.38
2022-11-28T04:30:46.907Z,10.89
2022-11-28T04:40:55.020Z,14.45
2022-11-28T04:51:03.027Z,12.09
2022-11-28T05:01:11.145Z,10.15
2022-11-28T05:11:19.473Z,13.33
2022-11-28T05:21:27.525Z,12.35
2022-11-28T05:31:36.703Z,10.69
2022-11-28T05:41:44.912Z,11.45
2022-11-28T05:51:53.231Z,11.83
2022-11-28T06:02:01.401Z,14.29
2022-11-28T06:12:09.287Z,12.58
2022-11-28T06:22:17.444Z,12.75
2022-11-28T06:32:24.568Z,12.75
2022-11-28T06:42:35.089Z,11.6
2022-11-28T06:52:33.105Z,12.11
2022-11-28T07:02:41.126Z,14.73
2022-11-28T07:12:48.973Z,14.66
2022-11-28T07:22:56.908Z,12.71
2022-11-28T07:33:04.877Z,15.24
2022-11-28T07:43:12.882Z,16.56
2022-11-28T07:53:20.952Z,14.81
2022-11-28T08:03:29.181Z,19.25
2022-11-28T08:13:37.434Z,19.01
2022-11-28T08:23:47.258Z,18.16
2022-11-28T08:33:55.436Z,17.24
2022-11-28T08:44:03.578Z,13.71
2022-11-28T08:54:13.850Z,11.5
2022-11-28T09:04:11.951Z,8.88
2022-11-28T09:14:19.918Z,9.74
2022-11-28T09:24:28.137Z,9.77
2022-11-28T09:34:37.787Z,11.61
2022-11-28T09:44:45.736Z,10.8
2022-11-28T09:54:53.684Z,8
2022-11-28T10:05:03.232Z,7.12
2022-11-28T10:15:11.825Z,8.46
2022-11-28T10:25:20.140Z,8.61
2022-11-28T10:35:28.662Z,5.36
2022-11-28T10:45:35.552Z,6.43
2022-11-28T10:55:43.864Z,4.94
2022-11-28T11:05:53.139Z,5.78
2022-11-28T11:16:02.247Z,5.3
2022-11-28T11:26:12.067Z,6.16
2022-11-28T11:36:20.144Z,3.67
2022-11-28T11:46:28.251Z,6.66
2022-11-28T11:56:36.780Z,4.45
2022-11-28T12:06:44.844Z,6.22
2022-11-28T12:16:53.030Z,11.4
2022-11-28T12:27:01.053Z,8.66
2022-11-28T12:37:09.015Z,7.19
2022-11-28T12:47:17.106Z,10.52
2022-11-28T12:57:18.408Z,11.5
2022-11-28T13:07:26.504Z,7.03
2022-11-28T13:17:36.441Z,5.44
2022-11-28T13:27:44.467Z,4.03
2022-11-28T13:48:02.387Z,4.81
2022-11-28T13:58:03.962Z,3.65
2022-11-28T14:08:12.016Z,2.67
2022-11-28T14:18:48.217Z,2.97
2022-11-28T14:28:22.902Z,2.83
2022-11-28T14:38:30.881Z,3.91
2022-11-28T14:48:38.932Z,3.89
2022-11-28T14:58:48.661Z,5.62
2022-11-28T15:08:56.561Z,4.53
2022-11-28T15:19:04.643Z,3.99
2022-11-28T15:29:12.634Z,3.22
2022-11-28T15:39:20.847Z,4.62
2022-11-28T15:49:29.216Z,5.13
2022-11-28T15:59:37.401Z,4.81
2022-11-28T16:09:45.624Z,5.86
2022-11-28T16:19:53.899Z,8.12
2022-11-28T16:30:01.962Z,8.79
2022-11-28T16:40:10.962Z,8.07
2022-11-28T16:50:18.103Z,9.23
2022-11-28T17:00:26.084Z,12.51
2022-11-28T17:10:34.021Z,13.37
2022-11-28T17:20:42.753Z,8.56
2022-11-28T17:30:50.708Z,8.78
2022-11-28T17:40:58.775Z,8.68
2022-11-28T17:51:10.287Z,15.44
2022-11-28T18:11:10.459Z,6.33
2022-11-28T18:21:18.500Z,10.88
2022-11-28T18:31:28.637Z,12.03
2022-11-28T18:51:32.083Z,10.1
2022-11-28T19:01:32.715Z,9.48
2022-11-28T19:11:40.245Z,9.06
2022-11-28T19:21:38.255Z,13.74
2022-11-28T19:31:46.185Z,7.6
2022-11-28T19:41:46.626Z,7.81
2022-11-28T20:01:54.388Z,8.63
2022-11-28T20:21:58.080Z,7.11
2022-11-28T20:31:57.247Z,9.67
2022-11-28T20:42:11.603Z,10.9
2022-11-28T21:02:12.284Z,6.89
2022-11-28T21:12:19.512Z,6.91
2022-11-28T21:22:22.476Z,6.29
2022-11-28T21:32:33.254Z,6.93
2022-11-28T21:42:38.220Z,4.84
2022-11-28T21:52:37.864Z,5.2
2022-11-28T22:02:46.230Z,4.81
2022-11-28T22:12:54.977Z,5.51
2022-11-28T22:23:03.267Z,4.92
2022-11-28T22:33:11.446Z,6.07
2022-11-28T22:43:19.602Z,7.07
2022-11-28T22:53:27.717Z,5.55
2022-11-28T23:03:35.787Z,5.02
2022-11-28T23:13:43.911Z,5.67
2022-11-28T23:23:52.143Z,3.77
2022-11-28T23:34:00.518Z,7.07
2022-11-28T23:44:08.588Z,6.38
2022-11-28T23:54:16.829Z,8.08
